Time;durP1;ratioP1;P1;durP2;ratioP2;P2;SDS_P1;SDS_P2;PMS_P1;PMS_P2;Temp;Humidity;BMP_temperature;BMP_pressure;BME280_temperature;BME280_humidity;BME280_pressure;Samples;Min_cycle;Max_cycle;Signal;HPM_P1;HPM_P2
2023/03/10 00:00:32;;;;;;;1.35;1.25;;;;;;;;;;2065836;28;20026;-78
2023/03/10 00:01:51;;;;;;;1.40;1.30;;;;;;;;;;2068283;28;20116;-78
2023/03/10 00:03:10;;;;;;;1.60;1.48;;;;;;;;;;2072563;28;20033;-76
2023/03/10 00:04:29;;;;;;;1.75;1.10;;;;;;;;;;2073940;28;20038;-76
2023/03/10 00:05:48;;;;;;;1.35;1.25;;;;;;;;;;2067518;28;20113;-77
2023/03/10 00:07:07;;;;;;;1.77;1.33;;;;;;;;;;2070719;28;20022;-77
2023/03/10 00:08:26;;;;;;;1.00;1.00;;;;;;;;;;2074317;28;22019;-77
2023/03/10 00:09:45;;;;;;;1.95;1.38;;;;;;;;;;2073409;28;20030;-77
2023/03/10 00:11:04;;;;;;;1.05;0.95;;;;;;;;;;2067602;28;20054;-78
2023/03/10 00:12:26;;;;;;;1.40;1.30;;;;;;;;;;2070513;28;20030;-77
2023/03/10 00:13:45;;;;;;;3.07;1.40;;;;;;;;;;2067705;28;20507;-77
2023/03/10 00:15:04;;;;;;;1.00;0.95;;;;;;;;;;2072840;28;20267;-77
2023/03/10 00:16:27;;;;;;;1.20;1.10;;;;;;;;;;2080709;28;20026;-77
2023/03/10 00:17:49;;;;;;;2.20;1.30;;;;;;;;;;2080144;28;20013;-76
2023/03/10 00:19:08;;;;;;;1.08;0.93;;;;;;;;;;2076023;28;20116;-76
2023/03/10 00:20:27;;;;;;;1.38;1.10;;;;;;;;;;2070957;28;20100;-78
2023/03/10 00:21:46;;;;;;;1.00;0.90;;;;;;;;;;2074241;28;20609;-77
2023/03/10 00:23:05;;;;;;;1.27;0.95;;;;;;;;;;2065302;28;20038;-79
2023/03/10 00:24:25;;;;;;;3.40;1.25;;;;;;;;;;2063144;28;20487;-76
2023/03/10 00:25:44;;;;;;;1.45;1.35;;;;;;;;;;2068728;28;20026;-76
2023/03/10 00:27:03;;;;;;;1.20;1.15;;;;;;;;;;2065137;28;20029;-78
2023/03/10 00:28:22;;;;;;;1.40;1.00;;;;;;;;;;2072577;28;20025;-77
2023/03/10 00:29:41;;;;;;;1.60;1.50;;;;;;;;;;2064225;28;20046;-76
2023/03/10 00:31:01;;;;;;;2.67;1.33;;;;;;;;;;2075017;28;20140;-77
2023/03/10 00:32:20;;;;;;;1.58;1.20;;;;;;;;;;2076852;28;20060;-77
2023/03/10 00:33:38;;;;;;;1.33;1.20;;;;;;;;;;2077809;28;20282;-76
2023/03/10 00:34:57;;;;;;;1.00;1.00;;;;;;;;;;2074065;28;20025;-76
2023/03/10 00:36:18;;;;;;;1.25;1.00;;;;;;;;;;2077067;28;20026;-77
2023/03/10 00:37:37;;;;;;;1.30;1.10;;;;;;;;;;2080457;28;20053;-77
2023/03/10 00:38:59;;;;;;;3.10;1.00;;;;;;;;;;2075304;28;20038;-77
2023/03/10 00:40:18;;;;;;;0.75;0.60;;;;;;;;;;2076218;28;20030;-76
2023/03/10 00:41:38;;;;;;;0.80;0.73;;;;;;;;;;2071467;28;20470;-76
2023/03/10 00:42:58;;;;;;;1.90;1.20;;;;;;;;;;2068849;28;20029;-76
2023/03/10 00:44:17;;;;;;;1.70;0.73;;;;;;;;;;2070614;28;20029;-77
2023/03/10 00:45:36;;;;;;;1.05;0.93;;;;;;;;;;2079349;28;20036;-76
2023/03/10 00:46:54;;;;;;;2.05;1.00;;;;;;;;;;2075650;28;20145;-77
2023/03/10 00:48:13;;;;;;;3.90;1.65;;;;;;;;;;2078047;28;20033;-76
2023/03/10 00:49:32;;;;;;;1.13;1.02;;;;;;;;;;2081491;28;20445;-76
2023/03/10 00:50:51;;;;;;;1.27;1.17;;;;;;;;;;2074026;28;20034;-76
2023/03/10 00:52:10;;;;;;;1.85;1.10;;;;;;;;;;2076302;28;20029;-77
2023/03/10 00:53:30;;;;;;;1.48;1.20;;;;;;;;;;2081337;28;20034;-76
2023/03/10 00:54:50;;;;;;;1.00;0.90;;;;;;;;;;2081210;28;20494;-76
2023/03/10 00:56:11;;;;;;;1.10;1.00;;;;;;;;;;2080517;28;20437;-76
2023/03/10 00:57:30;;;;;;;4.25;0.90;;;;;;;;;;2078892;28;20034;-76
2023/03/10 00:58:56;;;;;;;1.10;1.00;;;;;;;;;;2078152;28;20390;-76
2023/03/10 01:00:16;;;;;;;1.50;1.10;;;;;;;;;;2080013;28;20025;-77
2023/03/10 01:01:38;;;;;;;2.42;0.90;;;;;;;;;;2072331;28;20026;-76
2023/03/10 01:02:57;;;;;;;1.42;1.02;;;;;;;;;;2073036;28;20034;-76
2023/03/10 01:04:19;;;;;;;3.80;0.80;;;;;;;;;;2065192;28;20026;-76
2023/03/10 01:05:38;;;;;;;2.15;1.08;;;;;;;;;;2063725;28;20061;-77
2023/03/10 01:06:57;;;;;;;2.05;0.88;;;;;;;;;;2060651;28;20082;-76
2023/03/10 01:08:16;;;;;;;1.55;1.02;;;;;;;;;;2062087;28;20038;-76
2023/03/10 01:09:35;;;;;;;0.98;0.88;;;;;;;;;;2068589;28;20041;-77
2023/03/10 01:10:54;;;;;;;2.03;1.00;;;;;;;;;;2072405;28;20415;-76
2023/03/10 01:12:13;;;;;;;1.13;0.88;;;;;;;;;;2078936;28;20041;-76
2023/03/10 01:13:32;;;;;;;1.27;1.17;;;;;;;;;;2079150;28;20144;-76
2023/03/10 01:14:51;;;;;;;2.25;0.90;;;;;;;;;;2079658;28;20021;-75
2023/03/10 01:16:10;;;;;;;1.00;0.90;;;;;;;;;;2080086;28;20034;-76
2023/03/10 01:17:29;;;;;;;1.20;1.10;;;;;;;;;;2081301;28;20126;-76
2023/03/10 01:18:48;;;;;;;1.35;0.90;;;;;;;;;;2076926;28;20485;-77
2023/03/10 01:20:12;;;;;;;1.02;0.90;;;;;;;;;;2080390;28;20494;-76
2023/03/10 01:21:33;;;;;;;1.20;1.10;;;;;;;;;;2081475;28;20425;-75
2023/03/10 01:22:52;;;;;;;1.10;1.00;;;;;;;;;;2071321;28;20034;-76
2023/03/10 01:24:15;;;;;;;1.33;0.90;;;;;;;;;;2069983;28;20038;-76
2023/03/10 01:25:34;;;;;;;0.50;0.50;;;;;;;;;;2070049;28;20023;-76
2023/03/10 01:26:53;;;;;;;1.15;0.93;;;;;;;;;;2075510;28;20030;-76
2023/03/10 01:28:12;;;;;;;1.30;0.70;;;;;;;;;;2073589;28;20033;-75
2023/03/10 01:29:31;;;;;;;1.00;1.00;;;;;;;;;;2068357;28;20511;-76
2023/03/10 01:30:50;;;;;;;1.02;0.93;;;;;;;;;;2066469;28;20108;-76
2023/03/10 01:32:09;;;;;;;3.80;1.17;;;;;;;;;;2071480;28;20061;-77
2023/03/10 01:33:28;;;;;;;0.77;0.77;;;;;;;;;;2071220;28;20054;-76
2023/03/10 01:34:47;;;;;;;1.00;1.00;;;;;;;;;;2071320;28;20022;-76
2023/03/10 01:36:11;;;;;;;3.05;0.80;;;;;;;;;;2076630;28;20077;-76
2023/03/10 01:37:30;;;;;;;2.45;1.10;;;;;;;;;;2063394;28;20030;-77
2023/03/10 01:38:49;;;;;;;1.10;1.00;;;;;;;;;;2062088;28;20590;-76
2023/03/10 01:40:12;;;;;;;1.10;0.90;;;;;;;;;;2064323;28;20394;-76
2023/03/10 01:41:31;;;;;;;2.70;1.23;;;;;;;;;;2066110;28;20022;-76
2023/03/10 01:42:50;;;;;;;1.55;1.00;;;;;;;;;;2072128;28;20030;-77
2023/03/10 01:44:14;;;;;;;1.88;1.17;;;;;;;;;;2063321;28;20030;-77
2023/03/10 01:45:33;;;;;;;1.77;0.90;;;;;;;;;;2064889;28;20057;-77
2023/03/10 01:46:53;;;;;;;1.40;1.30;;;;;;;;;;2064764;28;20395;-76
2023/03/10 01:48:14;;;;;;;0.82;0.82;;;;;;;;;;2068106;28;20025;-76
2023/03/10 01:49:36;;;;;;;1.20;1.10;;;;;;;;;;2059349;28;20042;-77
2023/03/10 01:50:56;;;;;;;1.98;0.77;;;;;;;;;;2072654;28;20041;-78
2023/03/10 01:52:16;;;;;;;1.60;0.90;;;;;;;;;;2074276;28;20033;-78
2023/03/10 01:53:35;;;;;;;0.88;0.88;;;;;;;;;;2071776;28;20122;-76
2023/03/10 01:54:54;;;;;;;1.05;0.95;;;;;;;;;;2071290;28;20077;-76
2023/03/10 01:56:13;;;;;;;1.35;1.23;;;;;;;;;;2066197;28;20031;-76
2023/03/10 01:57:35;;;;;;;1.05;0.88;;;;;;;;;;2063606;28;20030;-77
2023/03/10 01:58:54;;;;;;;0.80;0.80;;;;;;;;;;2068784;28;20479;-77
2023/03/10 02:00:15;;;;;;;1.20;1.00;;;;;;;;;;2063265;28;20029;-76
2023/03/10 02:01:34;;;;;;;1.20;0.90;;;;;;;;;;2063558;28;20054;-77
2023/03/10 02:03:12;;;;;;;2.35;1.02;;;;;;;;;;2066138;28;20030;-78
2023/03/10 02:04:35;;;;;;;1.02;0.73;;;;;;;;;;2067230;28;20108;-77
2023/03/10 02:05:55;;;;;;;0.93;0.88;;;;;;;;;;2079159;28;20105;-76
2023/03/10 02:07:17;;;;;;;1.30;0.52;;;;;;;;;;2067391;28;20116;-77
2023/03/10 02:08:38;;;;;;;0.93;0.75;;;;;;;;;;2061955;28;20030;-77
2023/03/10 02:09:57;;;;;;;0.82;0.82;;;;;;;;;;2064125;28;20550;-77
2023/03/10 02:11:17;;;;;;;1.40;1.27;;;;;;;;;;2065866;28;20633;-78
2023/03/10 02:12:36;;;;;;;1.98;1.42;;;;;;;;;;2065641;28;20026;-77
2023/03/10 02:13:55;;;;;;;3.00;2.33;;;;;;;;;;2063361;28;20026;-76
2023/03/10 02:15:14;;;;;;;3.88;3.00;;;;;;;;;;2066877;28;20058;-76
2023/03/10 02:16:33;;;;;;;2.85;1.95;;;;;;;;;;2060499;28;20026;-76
2023/03/10 02:17:52;;;;;;;3.05;2.38;;;;;;;;;;2064274;28;20022;-78
2023/03/10 02:19:19;;;;;;;7.05;2.00;;;;;;;;;;2068222;28;20030;-77
2023/03/10 02:20:39;;;;;;;3.95;1.63;;;;;;;;;;2063074;28;20034;-75
2023/03/10 02:22:06;;;;;;;3.78;1.83;;;;;;;;;;2060870;28;20029;-76
2023/03/10 02:23:39;;;;;;;3.83;1.42;;;;;;;;;;2063693;28;20023;-78
2023/03/10 02:25:10;;;;;;;1.58;1.25;;;;;;;;;;2061917;28;20042;-77
2023/03/10 02:26:48;;;;;;;2.13;1.40;;;;;;;;;;2062575;28;20157;-75
2023/03/10 02:28:08;;;;;;;1.98;0.90;;;;;;;;;;2064590;28;20680;-76
2023/03/10 02:29:42;;;;;;;1.50;1.33;;;;;;;;;;2066100;28;20797;-77
2023/03/10 02:31:01;;;;;;;0.90;0.90;;;;;;;;;;2071477;28;20021;-76
2023/03/10 02:32:20;;;;;;;1.83;1.25;;;;;;;;;;2073917;28;20033;-78
2023/03/10 02:33:40;;;;;;;1.77;1.40;;;;;;;;;;2063173;28;20042;-77
2023/03/10 02:34:59;;;;;;;1.50;1.40;;;;;;;;;;2073534;28;20033;-78
2023/03/10 02:36:19;;;;;;;3.85;1.30;;;;;;;;;;2062535;28;20030;-77
2023/03/10 02:37:39;;;;;;;1.23;1.13;;;;;;;;;;2068121;28;20029;-76
2023/03/10 02:38:57;;;;;;;2.17;1.33;;;;;;;;;;2064381;28;20030;-77
2023/03/10 02:40:28;;;;;;;1.08;0.90;;;;;;;;;;2059940;28;20042;-77
2023/03/10 02:41:47;;;;;;;0.95;0.90;;;;;;;;;;2060398;28;20022;-76
2023/03/10 02:43:11;;;;;;;3.65;0.90;;;;;;;;;;2067431;28;20203;-78
2023/03/10 02:44:32;;;;;;;1.95;1.00;;;;;;;;;;2069883;28;20037;-77
2023/03/10 02:45:54;;;;;;;1.60;1.50;;;;;;;;;;2072066;28;20030;-77
2023/03/10 02:47:13;;;;;;;1.55;0.80;;;;;;;;;;2069690;28;20065;-78
2023/03/10 02:48:34;;;;;;;1.40;0.80;;;;;;;;;;2063076;28;20034;-77
2023/03/10 02:49:53;;;;;;;1.77;1.27;;;;;;;;;;2069993;28;20455;-76
2023/03/10 02:51:14;;;;;;;1.95;0.68;;;;;;;;;;2077431;28;20034;-77
2023/03/10 02:52:51;;;;;;;0.70;0.60;;;;;;;;;;2070912;28;20859;-76
2023/03/10 02:54:12;;;;;;;1.33;0.88;;;;;;;;;;2073402;28;20025;-76
2023/03/10 02:55:31;;;;;;;2.10;1.50;;;;;;;;;;2065893;28;20135;-76
2023/03/10 02:56:50;;;;;;;2.05;1.85;;;;;;;;;;2070686;28;20056;-76
2023/03/10 02:58:09;;;;;;;2.10;1.98;;;;;;;;;;2071813;28;20044;-76
2023/03/10 02:59:28;;;;;;;3.08;2.33;;;;;;;;;;2063677;28;20025;-77
2023/03/10 03:00:48;;;;;;;2.85;2.30;;;;;;;;;;2071064;28;20049;-78
2023/03/10 03:02:07;;;;;;;2.30;2.10;;;;;;;;;;2071839;28;20026;-76
2023/03/10 03:03:26;;;;;;;1.67;1.58;;;;;;;;;;2062731;28;21596;-77
2023/03/10 03:04:45;;;;;;;1.27;1.17;;;;;;;;;;2071172;28;20049;-78
2023/03/10 03:06:04;;;;;;;1.35;0.90;;;;;;;;;;2070826;28;20042;-77
2023/03/10 03:07:23;;;;;;;1.00;1.00;;;;;;;;;;2068370;28;20030;-76
2023/03/10 03:08:43;;;;;;;0.63;0.63;;;;;;;;;;2065341;28;20030;-76
2023/03/10 03:10:02;;;;;;;0.77;0.77;;;;;;;;;;2073930;28;20530;-76
2023/03/10 03:11:21;;;;;;;0.90;0.90;;;;;;;;;;2065129;28;20089;-76
2023/03/10 03:12:40;;;;;;;2.28;1.10;;;;;;;;;;2062032;28;21446;-76
2023/03/10 03:14:00;;;;;;;2.90;1.13;;;;;;;;;;2067391;28;20037;-76
2023/03/10 03:15:19;;;;;;;0.98;0.70;;;;;;;;;;2075737;28;20029;-78
2023/03/10 03:16:38;;;;;;;1.58;0.82;;;;;;;;;;2066011;28;20026;-77
2023/03/10 03:18:00;;;;;;;1.50;1.35;;;;;;;;;;2068981;28;20112;-78
2023/03/10 03:19:19;;;;;;;0.80;0.80;;;;;;;;;;2064791;28;20030;-76
2023/03/10 03:20:39;;;;;;;1.15;1.15;;;;;;;;;;2069281;28;20402;-76
2023/03/10 03:21:59;;;;;;;1.35;1.13;;;;;;;;;;2073706;28;20112;-77
2023/03/10 03:23:18;;;;;;;1.58;1.10;;;;;;;;;;2065628;28;20034;-78
2023/03/10 03:24:37;;;;;;;1.13;1.02;;;;;;;;;;2070880;28;20029;-78
2023/03/10 03:25:56;;;;;;;1.00;1.00;;;;;;;;;;2068067;28;20030;-76
2023/03/10 03:27:15;;;;;;;2.88;1.15;;;;;;;;;;2075053;28;20029;-77
2023/03/10 03:28:34;;;;;;;3.35;1.38;;;;;;;;;;2078553;28;20026;-76
2023/03/10 03:29:53;;;;;;;1.08;0.90;;;;;;;;;;2081501;28;20041;-76
2023/03/10 03:31:14;;;;;;;1.00;1.00;;;;;;;;;;2078015;28;20033;-77
2023/03/10 03:32:34;;;;;;;1.63;1.52;;;;;;;;;;2062209;28;20037;-77
2023/03/10 03:33:53;;;;;;;1.60;1.40;;;;;;;;;;2070698;28;20510;-77
2023/03/10 03:35:14;;;;;;;1.50;1.30;;;;;;;;;;2080249;28;20017;-78
2023/03/10 03:36:34;;;;;;;1.70;1.50;;;;;;;;;;2086836;28;20005;-76
2023/03/10 03:37:54;;;;;;;1.50;1.40;;;;;;;;;;2081994;28;20033;-78
2023/03/10 03:39:16;;;;;;;3.55;1.40;;;;;;;;;;2083827;28;20025;-78
2023/03/10 03:40:36;;;;;;;1.43;1.27;;;;;;;;;;2083688;28;20021;-76
2023/03/10 03:41:56;;;;;;;2.13;1.58;;;;;;;;;;2080888;28;20290;-77
2023/03/10 03:43:15;;;;;;;2.00;1.50;;;;;;;;;;2084373;28;20093;-77
2023/03/10 03:44:34;;;;;;;2.75;1.90;;;;;;;;;;2080078;28;20656;-78
2023/03/10 03:45:53;;;;;;;1.95;1.70;;;;;;;;;;2083424;28;20025;-78
2023/03/10 03:47:12;;;;;;;2.65;1.85;;;;;;;;;;2077656;28;20026;-77
2023/03/10 03:48:33;;;;;;;1.85;1.75;;;;;;;;;;2066536;28;20479;-77
2023/03/10 03:49:52;;;;;;;2.78;1.83;;;;;;;;;;2077748;28;20022;-77
2023/03/10 03:51:11;;;;;;;2.15;1.65;;;;;;;;;;2072639;28;20026;-77
2023/03/10 03:52:31;;;;;;;2.30;1.90;;;;;;;;;;2071672;28;20034;-79
2023/03/10 03:53:50;;;;;;;2.88;2.00;;;;;;;;;;2070540;28;20505;-77
2023/03/10 03:55:10;;;;;;;2.10;1.80;;;;;;;;;;2074063;28;20172;-79
2023/03/10 03:56:29;;;;;;;1.92;1.77;;;;;;;;;;2072573;28;20029;-77
2023/03/10 03:57:48;;;;;;;1.52;1.33;;;;;;;;;;2073790;28;20459;-79
2023/03/10 03:59:07;;;;;;;1.70;1.60;;;;;;;;;;2073663;28;20068;-77
2023/03/10 04:00:26;;;;;;;3.45;1.60;;;;;;;;;;2073277;28;20022;-77
2023/03/10 04:01:45;;;;;;;2.65;1.55;;;;;;;;;;2072668;28;20033;-76
2023/03/10 04:03:04;;;;;;;2.03;1.80;;;;;;;;;;2072550;28;20081;-76
2023/03/10 04:04:22;;;;;;;4.28;1.80;;;;;;;;;;2064308;28;20151;-77
2023/03/10 04:05:43;;;;;;;5.72;1.88;;;;;;;;;;2071592;28;20046;-78
2023/03/10 04:07:02;;;;;;;3.47;1.80;;;;;;;;;;2072256;28;20323;-76
2023/03/10 04:08:21;;;;;;;2.00;1.80;;;;;;;;;;2063600;28;20029;-76
2023/03/10 04:09:41;;;;;;;1.70;1.60;;;;;;;;;;2068857;28;20077;-77
2023/03/10 04:10:59;;;;;;;1.77;1.67;;;;;;;;;;2073941;28;20041;-76
2023/03/10 04:12:18;;;;;;;2.35;2.25;;;;;;;;;;2071704;28;20037;-76
2023/03/10 04:13:37;;;;;;;2.00;1.80;;;;;;;;;;2071687;28;20175;-78
2023/03/10 04:14:56;;;;;;;2.30;2.10;;;;;;;;;;2071161;28;20030;-77
2023/03/10 04:16:15;;;;;;;3.85;2.13;;;;;;;;;;2070281;28;20021;-76
2023/03/10 04:17:35;;;;;;;2.20;2.00;;;;;;;;;;2073314;28;20386;-76
2023/03/10 04:18:53;;;;;;;2.25;2.08;;;;;;;;;;2071876;28;20021;-78
2023/03/10 04:20:13;;;;;;;2.95;2.30;;;;;;;;;;2071317;28;20025;-76
2023/03/10 04:21:35;;;;;;;2.30;2.10;;;;;;;;;;2075361;28;20022;-76
2023/03/10 04:22:54;;;;;;;2.65;2.17;;;;;;;;;;2078042;28;20049;-76
2023/03/10 04:24:13;;;;;;;2.60;2.40;;;;;;;;;;2066562;28;20744;-75
2023/03/10 04:25:32;;;;;;;2.42;2.22;;;;;;;;;;2068874;28;20025;-76
2023/03/10 04:26:51;;;;;;;2.92;2.70;;;;;;;;;;2074189;28;20499;-78
2023/03/10 04:28:10;;;;;;;2.70;2.47;;;;;;;;;;2065133;28;20038;-76
2023/03/10 04:29:29;;;;;;;2.72;2.53;;;;;;;;;;2068209;28;20419;-77
2023/03/10 04:30:49;;;;;;;3.70;2.70;;;;;;;;;;2063718;28;20117;-78
2023/03/10 04:32:08;;;;;;;3.45;2.78;;;;;;;;;;2061130;28;20026;-76
2023/03/10 04:33:27;;;;;;;3.25;2.97;;;;;;;;;;2059473;28;20038;-77
2023/03/10 04:34:45;;;;;;;3.35;3.05;;;;;;;;;;2069063;28;20038;-78
2023/03/10 04:36:04;;;;;;;3.58;2.78;;;;;;;;;;2072729;28;20029;-76
2023/03/10 04:37:23;;;;;;;2.67;2.47;;;;;;;;;;2076066;28;20029;-77
2023/03/10 04:38:43;;;;;;;3.65;2.97;;;;;;;;;;2071433;28;20108;-77
2023/03/10 04:40:08;;;;;;;3.97;2.50;;;;;;;;;;2069896;28;21112;-77
2023/03/10 04:41:27;;;;;;;2.97;2.78;;;;;;;;;;2070430;28;20061;-76
2023/03/10 04:42:46;;;;;;;2.85;2.65;;;;;;;;;;2073238;28;20034;-76
2023/03/10 04:44:06;;;;;;;3.17;2.80;;;;;;;;;;2071412;28;20037;-77
2023/03/10 04:45:25;;;;;;;2.78;2.58;;;;;;;;;;2077167;28;20501;-76
2023/03/10 04:46:44;;;;;;;2.80;2.60;;;;;;;;;;2071281;28;20075;-76
2023/03/10 04:48:03;;;;;;;2.88;2.67;;;;;;;;;;2070022;28;20486;-78
2023/03/10 04:49:22;;;;;;;3.97;2.83;;;;;;;;;;2063769;28;20104;-78
2023/03/10 04:50:41;;;;;;;2.70;2.50;;;;;;;;;;2061417;28;20041;-78
2023/03/10 04:52:00;;;;;;;2.90;2.65;;;;;;;;;;2070790;28;20081;-76
2023/03/10 04:53:19;;;;;;;4.70;2.53;;;;;;;;;;2066814;28;20026;-77
2023/03/10 04:54:38;;;;;;;2.50;2.30;;;;;;;;;;2068990;28;20046;-77
2023/03/10 04:55:57;;;;;;;2.63;2.47;;;;;;;;;;2072194;28;20026;-76
2023/03/10 04:57:16;;;;;;;2.88;2.67;;;;;;;;;;2063115;28;20716;-76
2023/03/10 04:58:37;;;;;;;3.53;2.97;;;;;;;;;;2069005;28;20030;-75
2023/03/10 04:59:56;;;;;;;4.88;2.85;;;;;;;;;;2071899;28;20089;-75
2023/03/10 05:01:15;;;;;;;2.70;2.50;;;;;;;;;;2067081;28;20581;-77
2023/03/10 05:02:34;;;;;;;3.25;2.95;;;;;;;;;;2078818;28;20021;-75
2023/03/10 05:03:53;;;;;;;2.70;2.50;;;;;;;;;;2081570;28;20431;-77
2023/03/10 05:05:12;;;;;;;4.70;2.42;;;;;;;;;;2081607;28;20498;-75
2023/03/10 05:06:31;;;;;;;2.90;2.60;;;;;;;;;;2074655;28;20042;-77
2023/03/10 05:07:50;;;;;;;2.90;2.70;;;;;;;;;;2073716;28;20026;-75
2023/03/10 05:09:09;;;;;;;2.33;2.13;;;;;;;;;;2070029;28;20033;-76
2023/03/10 05:10:28;;;;;;;3.72;2.28;;;;;;;;;;2077038;28;20398;-75
2023/03/10 05:11:47;;;;;;;2.50;2.30;;;;;;;;;;2079281;28;20526;-75
2023/03/10 05:13:11;;;;;;;4.22;2.25;;;;;;;;;;2078938;28;20037;-76
2023/03/10 05:14:30;;;;;;;2.78;2.58;;;;;;;;;;2078692;28;20068;-76
2023/03/10 05:15:49;;;;;;;1.98;1.88;;;;;;;;;;2080391;28;20509;-75
2023/03/10 05:17:08;;;;;;;2.58;1.98;;;;;;;;;;2081248;28;20038;-76
2023/03/10 05:18:28;;;;;;;2.03;1.80;;;;;;;;;;2081354;28;20059;-75
2023/03/10 05:19:47;;;;;;;2.10;1.85;;;;;;;;;;2080665;28;20108;-75
2023/03/10 05:21:06;;;;;;;2.45;1.70;;;;;;;;;;2079804;28;20029;-75
2023/03/10 05:22:26;;;;;;;4.03;1.70;;;;;;;;;;2070996;28;20034;-76
2023/03/10 05:23:45;;;;;;;3.00;1.88;;;;;;;;;;2072288;28;20109;-74
2023/03/10 05:25:05;;;;;;;3.08;1.90;;;;;;;;;;2077437;28;20033;-76
2023/03/10 05:26:24;;;;;;;1.77;1.67;;;;;;;;;;2082016;28;20479;-76
2023/03/10 05:27:43;;;;;;;1.67;1.58;;;;;;;;;;2076297;28;20068;-76
2023/03/10 05:29:02;;;;;;;2.40;2.15;;;;;;;;;;2075772;28;20033;-76
2023/03/10 05:30:21;;;;;;;3.22;1.58;;;;;;;;;;2078657;28;20471;-74
2023/03/10 05:31:40;;;;;;;4.10;1.70;;;;;;;;;;2075683;28;20500;-76
2023/03/10 05:32:59;;;;;;;1.80;1.70;;;;;;;;;;2076882;28;20041;-76
2023/03/10 05:34:18;;;;;;;2.20;1.77;;;;;;;;;;2078663;28;20108;-75
2023/03/10 05:35:37;;;;;;;3.08;1.63;;;;;;;;;;2074087;28;20025;-75
2023/03/10 05:36:56;;;;;;;2.55;1.75;;;;;;;;;;2076957;28;20437;-76
2023/03/10 05:38:15;;;;;;;2.22;2.03;;;;;;;;;;2078645;28;20037;-76
2023/03/10 05:39:34;;;;;;;1.95;1.77;;;;;;;;;;2079055;28;20057;-76
2023/03/10 05:40:53;;;;;;;2.70;1.83;;;;;;;;;;2070165;28;20058;-76
2023/03/10 05:42:12;;;;;;;4.10;1.58;;;;;;;;;;2073891;28;20407;-76
2023/03/10 05:43:31;;;;;;;1.90;1.80;;;;;;;;;;2080114;28;20477;-75
2023/03/10 05:44:50;;;;;;;3.33;2.13;;;;;;;;;;2079850;28;20057;-76
2023/03/10 05:46:09;;;;;;;3.33;2.28;;;;;;;;;;2070779;28;20025;-75
2023/03/10 05:47:28;;;;;;;2.45;2.10;;;;;;;;;;2071300;28;20033;-77
2023/03/10 05:48:47;;;;;;;2.58;2.25;;;;;;;;;;2078618;28;20033;-77
2023/03/10 05:50:06;;;;;;;2.22;2.05;;;;;;;;;;2073188;28;20410;-76
2023/03/10 05:51:25;;;;;;;4.90;2.08;;;;;;;;;;2076913;28;20018;-76
2023/03/10 05:52:44;;;;;;;2.95;2.13;;;;;;;;;;2073833;28;20109;-77
2023/03/10 05:54:05;;;;;;;2.42;2.10;;;;;;;;;;2068324;28;20030;-77
2023/03/10 05:55:23;;;;;;;2.53;2.30;;;;;;;;;;2076569;28;20168;-79
2023/03/10 05:56:42;;;;;;;2.42;2.05;;;;;;;;;;2075757;28;20022;-76
2023/03/10 05:58:01;;;;;;;2.53;2.33;;;;;;;;;;2080363;28;20033;-76
2023/03/10 05:59:20;;;;;;;7.25;2.40;;;;;;;;;;2080048;28;20390;-77
2023/03/10 06:00:39;;;;;;;2.38;2.13;;;;;;;;;;2073677;28;20025;-76
2023/03/10 06:01:58;;;;;;;3.05;2.30;;;;;;;;;;2077705;28;20029;-76
2023/03/10 06:03:22;;;;;;;3.08;2.15;;;;;;;;;;2073879;28;20022;-76
2023/03/10 06:04:41;;;;;;;2.88;2.13;;;;;;;;;;2078114;28;20034;-76
2023/03/10 06:06:00;;;;;;;3.33;2.42;;;;;;;;;;2078705;28;20029;-75
2023/03/10 06:07:20;;;;;;;2.20;2.00;;;;;;;;;;2080424;28;20136;-76
2023/03/10 06:08:39;;;;;;;2.70;2.50;;;;;;;;;;2078711;28;20029;-76
2023/03/10 06:09:58;;;;;;;2.72;2.53;;;;;;;;;;2071793;28;20101;-77
2023/03/10 06:11:17;;;;;;;2.55;2.30;;;;;;;;;;2078927;28;20060;-78
2023/03/10 06:12:36;;;;;;;5.50;2.40;;;;;;;;;;2074908;28;20514;-77
2023/03/10 06:13:56;;;;;;;3.05;2.38;;;;;;;;;;2078418;28;20029;-79
2023/03/10 06:15:21;;;;;;;2.78;2.15;;;;;;;;;;2076864;28;20470;-77
2023/03/10 06:16:40;;;;;;;3.88;2.45;;;;;;;;;;2076109;28;20037;-78
2023/03/10 06:17:59;;;;;;;3.30;2.45;;;;;;;;;;2077272;28;20124;-77
2023/03/10 06:19:18;;;;;;;3.00;2.70;;;;;;;;;;2077681;28;20739;-77
2023/03/10 06:20:38;;;;;;;2.13;2.03;;;;;;;;;;2072264;28;20117;-78
2023/03/10 06:21:57;;;;;;;2.38;2.10;;;;;;;;;;2078936;28;20450;-76
2023/03/10 06:23:16;;;;;;;2.70;2.50;;;;;;;;;;2080512;28;20057;-76
2023/03/10 06:24:35;;;;;;;3.22;2.38;;;;;;;;;;2079858;28;20034;-76
2023/03/10 06:25:59;;;;;;;2.47;2.28;;;;;;;;;;2079028;28;20037;-76
2023/03/10 06:27:18;;;;;;;3.65;2.22;;;;;;;;;;2078809;28;20029;-77
2023/03/10 06:28:39;;;;;;;2.30;2.10;;;;;;;;;;2077324;28;20108;-80
2023/03/10 06:29:59;;;;;;;3.08;2.28;;;;;;;;;;2078249;28;20049;-76
2023/03/10 06:31:19;;;;;;;2.13;1.92;;;;;;;;;;2079357;28;20037;-77
2023/03/10 06:32:38;;;;;;;3.38;2.47;;;;;;;;;;2075900;28;20037;-77
2023/03/10 06:33:58;;;;;;;2.47;2.10;;;;;;;;;;2062519;28;20113;-76
2023/03/10 06:35:17;;;;;;;2.83;2.50;;;;;;;;;;2067702;28;21480;-75
2023/03/10 06:36:39;;;;;;;3.47;2.55;;;;;;;;;;2078103;28;20108;-75
2023/03/10 06:37:57;;;;;;;3.25;2.50;;;;;;;;;;2073651;28;20042;-76
2023/03/10 06:39:16;;;;;;;2.22;2.03;;;;;;;;;;2067907;28;20030;-77
2023/03/10 06:40:35;;;;;;;4.78;2.00;;;;;;;;;;2065127;28;21317;-78
2023/03/10 06:41:54;;;;;;;5.07;2.20;;;;;;;;;;2075893;28;20029;-77
2023/03/10 06:43:13;;;;;;;2.97;2.67;;;;;;;;;;2078571;28;20017;-77
2023/03/10 06:44:32;;;;;;;5.57;2.40;;;;;;;;;;2075937;28;20025;-78
2023/03/10 06:45:51;;;;;;;2.83;2.60;;;;;;;;;;2070938;28;20508;-77
2023/03/10 06:47:10;;;;;;;3.78;2.58;;;;;;;;;;2076592;28;20045;-77
2023/03/10 06:48:29;;;;;;;2.67;2.47;;;;;;;;;;2076527;28;20030;-77
2023/03/10 06:49:48;;;;;;;3.17;2.80;;;;;;;;;;2078528;28;20033;-76
2023/03/10 06:51:09;;;;;;;4.93;2.58;;;;;;;;;;2072978;28;20037;-75
2023/03/10 06:52:27;;;;;;;3.20;2.90;;;;;;;;;;2080007;28;20425;-75
2023/03/10 06:53:48;;;;;;;3.45;2.67;;;;;;;;;;2072868;28;20104;-75
2023/03/10 06:55:07;;;;;;;3.00;2.70;;;;;;;;;;2077874;28;20092;-76
2023/03/10 06:56:26;;;;;;;4.00;2.67;;;;;;;;;;2068881;28;20116;-76
2023/03/10 06:57:45;;;;;;;5.72;2.67;;;;;;;;;;2070811;28;20458;-74
2023/03/10 06:59:04;;;;;;;3.22;2.72;;;;;;;;;;2070852;28;20442;-76
2023/03/10 07:00:22;;;;;;;3.20;2.50;;;;;;;;;;2070072;28;20665;-75
2023/03/10 07:01:41;;;;;;;2.13;1.95;;;;;;;;;;2077552;28;20057;-75
2023/03/10 07:03:01;;;;;;;4.57;2.03;;;;;;;;;;2079181;28;20033;-77
2023/03/10 07:04:19;;;;;;;4.93;1.80;;;;;;;;;;2073538;28;20152;-76
2023/03/10 07:05:39;;;;;;;1.85;1.73;;;;;;;;;;2069244;28;20395;-75
2023/03/10 07:06:58;;;;;;;4.63;2.20;;;;;;;;;;2069943;28;20029;-76
2023/03/10 07:08:17;;;;;;;2.38;2.17;;;;;;;;;;2076890;28;20061;-76
2023/03/10 07:09:37;;;;;;;2.92;2.47;;;;;;;;;;2078213;28;20041;-75
2023/03/10 07:10:56;;;;;;;5.32;1.67;;;;;;;;;;2072859;28;20038;-76
2023/03/10 07:12:15;;;;;;;2.30;2.10;;;;;;;;;;2076665;28;20033;-75
2023/03/10 07:13:34;;;;;;;5.00;2.33;;;;;;;;;;2079172;28;20045;-75
2023/03/10 07:14:55;;;;;;;2.13;1.92;;;;;;;;;;2069930;28;20303;-76
2023/03/10 07:16:14;;;;;;;2.25;1.80;;;;;;;;;;2069284;28;20021;-76
2023/03/10 07:17:32;;;;;;;1.80;1.70;;;;;;;;;;2074232;28;20022;-78
2023/03/10 07:18:51;;;;;;;2.72;2.00;;;;;;;;;;2077719;28;20506;-74
2023/03/10 07:20:11;;;;;;;4.03;1.90;;;;;;;;;;2061459;28;20037;-77
2023/03/10 07:21:31;;;;;;;3.65;2.80;;;;;;;;;;2076231;28;20037;-76
2023/03/10 07:22:49;;;;;;;3.45;1.88;;;;;;;;;;2080833;28;20425;-75
2023/03/10 07:24:09;;;;;;;2.08;1.80;;;;;;;;;;2076835;28;20113;-76
2023/03/10 07:25:28;;;;;;;4.70;1.70;;;;;;;;;;2078841;28;20487;-75
2023/03/10 07:26:47;;;;;;;1.90;1.77;;;;;;;;;;2068598;28;20026;-76
2023/03/10 07:28:06;;;;;;;3.22;1.83;;;;;;;;;;2075426;28;20026;-78
2023/03/10 07:29:26;;;;;;;2.78;1.90;;;;;;;;;;2081299;28;20057;-78
2023/03/10 07:30:45;;;;;;;3.35;1.88;;;;;;;;;;2079287;28;20021;-79
2023/03/10 07:32:04;;;;;;;1.80;1.70;;;;;;;;;;2082536;28;20030;-78
2023/03/10 07:33:23;;;;;;;4.57;1.70;;;;;;;;;;2083945;28;20021;-78
2023/03/10 07:34:42;;;;;;;1.83;1.73;;;;;;;;;;2078732;28;20159;-78
2023/03/10 07:36:05;;;;;;;3.40;1.70;;;;;;;;;;2086186;28;20037;-78
2023/03/10 07:37:24;;;;;;;2.00;1.65;;;;;;;;;;2088812;28;20100;-79
2023/03/10 07:38:43;;;;;;;3.85;2.00;;;;;;;;;;2089295;28;20030;-78
2023/03/10 07:40:03;;;;;;;1.38;1.27;;;;;;;;;;2090725;28;20010;-78
2023/03/10 07:41:22;;;;;;;5.05;1.85;;;;;;;;;;2088000;28;20029;-79
2023/03/10 07:42:42;;;;;;;1.58;1.48;;;;;;;;;;2077730;28;20026;-79
2023/03/10 07:44:01;;;;;;;1.77;1.38;;;;;;;;;;2084233;28;20034;-79
2023/03/10 07:45:24;;;;;;;2.60;1.40;;;;;;;;;;2075717;28;20038;-78
2023/03/10 07:46:43;;;;;;;2.75;1.10;;;;;;;;;;2064095;28;20034;-78
2023/03/10 07:48:03;;;;;;;2.13;1.55;;;;;;;;;;2077379;28;20045;-80
2023/03/10 07:49:22;;;;;;;5.18;1.45;;;;;;;;;;2079693;28;20029;-78
2023/03/10 07:50:41;;;;;;;2.10;1.30;;;;;;;;;;2077001;28;20026;-78
2023/03/10 07:51:59;;;;;;;1.85;1.52;;;;;;;;;;2071520;28;20506;-77
2023/03/10 07:53:22;;;;;;;3.42;1.45;;;;;;;;;;2080301;28;20031;-77
2023/03/10 07:54:43;;;;;;;2.10;1.50;;;;;;;;;;2076215;28;20132;-77
2023/03/10 07:56:05;;;;;;;2.05;1.33;;;;;;;;;;2070910;28;20117;-78
2023/03/10 07:57:24;;;;;;;2.45;1.33;;;;;;;;;;2076016;28;20038;-77
2023/03/10 07:58:43;;;;;;;5.10;1.50;;;;;;;;;;2077012;28;20093;-77